sensor_id;sensor_type;location;lat;lon;timestamp;P1;durP1;ratioP1;P2;durP2;ratioP2
29938;SDS011;16799;50.844;5.304;2023-04-25T00:01:19;9.27;;;4.07;;
29938;SDS011;16799;50.844;5.304;2023-04-25T00:03:46;12.63;;;5.13;;
29938;SDS011;16799;50.844;5.304;2023-04-25T00:06:13;19.87;;;5.40;;
29938;SDS011;16799;50.844;5.304;2023-04-25T00:08:39;24.93;;;5.70;;
29938;SDS011;16799;50.844;5.304;2023-04-25T00:11:05;12.60;;;5.70;;
29938;SDS011;16799;50.844;5.304;2023-04-25T00:13:31;24.33;;;5.33;;
29938;SDS011;16799;50.844;5.304;2023-04-25T00:15:57;11.10;;;5.50;;
29938;SDS011;16799;50.844;5.304;2023-04-25T00:18:23;14.63;;;5.40;;
29938;SDS011;16799;50.844;5.304;2023-04-25T00:20:49;17.73;;;5.80;;
29938;SDS011;16799;50.844;5.304;2023-04-25T00:23:15;8.93;;;5.20;;
29938;SDS011;16799;50.844;5.304;2023-04-25T00:25:45;18.07;;;6.17;;
29938;SDS011;16799;50.844;5.304;2023-04-25T00:28:11;11.53;;;4.60;;
29938;SDS011;16799;50.844;5.304;2023-04-25T00:30:38;8.27;;;5.67;;
29938;SDS011;16799;50.844;5.304;2023-04-25T00:33:04;13.00;;;4.77;;
29938;SDS011;16799;50.844;5.304;2023-04-25T00:35:30;19.97;;;6.00;;
29938;SDS011;16799;50.844;5.304;2023-04-25T00:37:56;16.97;;;6.50;;
29938;SDS011;16799;50.844;5.304;2023-04-25T00:40:21;10.70;;;5.37;;
29938;SDS011;16799;50.844;5.304;2023-04-25T00:42:47;15.57;;;5.17;;
29938;SDS011;16799;50.844;5.304;2023-04-25T00:45:14;17.23;;;6.27;;
29938;SDS011;16799;50.844;5.304;2023-04-25T00:47:40;11.13;;;6.00;;
29938;SDS011;16799;50.844;5.304;2023-04-25T00:50:07;15.23;;;5.23;;
29938;SDS011;16799;50.844;5.304;2023-04-25T00:52:34;26.00;;;6.27;;
29938;SDS011;16799;50.844;5.304;2023-04-25T00:55:01;19.80;;;5.43;;
29938;SDS011;16799;50.844;5.304;2023-04-25T00:57:27;18.33;;;5.40;;
29938;SDS011;16799;50.844;5.304;2023-04-25T00:59:53;15.20;;;5.33;;
29938;SDS011;16799;50.844;5.304;2023-04-25T01:02:20;17.57;;;6.37;;
29938;SDS011;16799;50.844;5.304;2023-04-25T01:04:47;20.07;;;5.10;;
29938;SDS011;16799;50.844;5.304;2023-04-25T01:07:13;17.83;;;4.93;;
29938;SDS011;16799;50.844;5.304;2023-04-25T01:09:40;12.13;;;4.67;;
29938;SDS011;16799;50.844;5.304;2023-04-25T01:12:06;13.27;;;4.63;;
29938;SDS011;16799;50.844;5.304;2023-04-25T01:14:32;15.93;;;5.30;;
29938;SDS011;16799;50.844;5.304;2023-04-25T01:16:58;18.53;;;5.87;;
29938;SDS011;16799;50.844;5.304;2023-04-25T01:19:23;13.70;;;5.27;;
29938;SDS011;16799;50.844;5.304;2023-04-25T01:21:50;17.63;;;5.57;;
29938;SDS011;16799;50.844;5.304;2023-04-25T01:24:16;15.50;;;5.93;;
29938;SDS011;16799;50.844;5.304;2023-04-25T01:26:42;18.03;;;4.60;;
29938;SDS011;16799;50.844;5.304;2023-04-25T01:29:14;20.40;;;6.00;;
29938;SDS011;16799;50.844;5.304;2023-04-25T01:31:43;12.47;;;6.40;;
29938;SDS011;16799;50.844;5.304;2023-04-25T01:34:10;18.50;;;6.67;;
29938;SDS011;16799;50.844;5.304;2023-04-25T01:36:36;13.80;;;4.97;;
29938;SDS011;16799;50.844;5.304;2023-04-25T01:39:02;17.40;;;6.10;;
29938;SDS011;16799;50.844;5.304;2023-04-25T01:41:28;11.13;;;5.00;;
29938;SDS011;16799;50.844;5.304;2023-04-25T01:43:54;25.37;;;6.83;;
29938;SDS011;16799;50.844;5.304;2023-04-25T01:46:20;14.97;;;4.70;;
29938;SDS011;16799;50.844;5.304;2023-04-25T01:48:46;19.00;;;6.00;;
29938;SDS011;16799;50.844;5.304;2023-04-25T01:51:12;9.73;;;5.47;;
29938;SDS011;16799;50.844;5.304;2023-04-25T01:53:38;18.07;;;5.77;;
29938;SDS011;16799;50.844;5.304;2023-04-25T01:56:04;17.10;;;5.83;;
29938;SDS011;16799;50.844;5.304;2023-04-25T01:58:30;20.40;;;6.40;;
29938;SDS011;16799;50.844;5.304;2023-04-25T02:00:56;14.13;;;6.00;;
29938;SDS011;16799;50.844;5.304;2023-04-25T02:03:21;17.27;;;6.30;;
29938;SDS011;16799;50.844;5.304;2023-04-25T02:05:47;14.50;;;6.33;;
29938;SDS011;16799;50.844;5.304;2023-04-25T02:08:13;19.77;;;6.30;;
29938;SDS011;16799;50.844;5.304;2023-04-25T02:10:39;19.53;;;6.23;;
29938;SDS011;16799;50.844;5.304;2023-04-25T02:13:05;19.10;;;6.63;;
29938;SDS011;16799;50.844;5.304;2023-04-25T02:15:31;15.40;;;5.80;;
29938;SDS011;16799;50.844;5.304;2023-04-25T02:17:56;9.80;;;5.27;;
29938;SDS011;16799;50.844;5.304;2023-04-25T02:20:23;9.17;;;5.37;;
29938;SDS011;16799;50.844;5.304;2023-04-25T02:22:50;18.47;;;6.20;;
29938;SDS011;16799;50.844;5.304;2023-04-25T02:25:16;19.27;;;6.20;;
29938;SDS011;16799;50.844;5.304;2023-04-25T02:27:42;16.20;;;6.20;;
29938;SDS011;16799;50.844;5.304;2023-04-25T02:30:08;15.67;;;6.60;;
29938;SDS011;16799;50.844;5.304;2023-04-25T02:32:34;21.73;;;5.63;;
29938;SDS011;16799;50.844;5.304;2023-04-25T02:35:00;13.53;;;5.00;;
29938;SDS011;16799;50.844;5.304;2023-04-25T02:37:36;11.87;;;6.53;;
29938;SDS011;16799;50.844;5.304;2023-04-25T02:40:03;28.83;;;7.43;;
29938;SDS011;16799;50.844;5.304;2023-04-25T02:42:30;8.30;;;6.00;;
29938;SDS011;16799;50.844;5.304;2023-04-25T02:44:55;17.80;;;5.07;;
29938;SDS011;16799;50.844;5.304;2023-04-25T02:47:21;21.37;;;6.23;;
29938;SDS011;16799;50.844;5.304;2023-04-25T02:49:47;20.83;;;5.83;;
29938;SDS011;16799;50.844;5.304;2023-04-25T02:52:13;15.37;;;8.00;;
29938;SDS011;16799;50.844;5.304;2023-04-25T02:54:39;23.07;;;5.33;;
29938;SDS011;16799;50.844;5.304;2023-04-25T02:57:05;19.83;;;7.00;;
29938;SDS011;16799;50.844;5.304;2023-04-25T02:59:31;16.83;;;5.53;;
29938;SDS011;16799;50.844;5.304;2023-04-25T03:01:57;15.63;;;6.00;;
29938;SDS011;16799;50.844;5.304;2023-04-25T03:04:23;23.60;;;7.37;;
29938;SDS011;16799;50.844;5.304;2023-04-25T03:06:49;19.83;;;7.30;;
29938;SDS011;16799;50.844;5.304;2023-04-25T03:09:15;20.57;;;7.13;;
29938;SDS011;16799;50.844;5.304;2023-04-25T03:11:41;18.27;;;6.60;;
29938;SDS011;16799;50.844;5.304;2023-04-25T03:14:07;25.07;;;7.30;;
29938;SDS011;16799;50.844;5.304;2023-04-25T03:16:33;15.93;;;5.30;;
29938;SDS011;16799;50.844;5.304;2023-04-25T03:18:59;12.07;;;5.80;;
29938;SDS011;16799;50.844;5.304;2023-04-25T03:21:25;21.70;;;7.50;;
29938;SDS011;16799;50.844;5.304;2023-04-25T03:23:51;14.13;;;6.80;;
29938;SDS011;16799;50.844;5.304;2023-04-25T03:26:17;15.50;;;6.57;;
29938;SDS011;16799;50.844;5.304;2023-04-25T03:28:42;17.77;;;6.50;;
29938;SDS011;16799;50.844;5.304;2023-04-25T03:31:08;23.17;;;7.20;;
29938;SDS011;16799;50.844;5.304;2023-04-25T03:33:34;23.40;;;7.10;;
29938;SDS011;16799;50.844;5.304;2023-04-25T03:35:59;29.67;;;8.60;;
29938;SDS011;16799;50.844;5.304;2023-04-25T03:38:25;29.73;;;8.80;;
29938;SDS011;16799;50.844;5.304;2023-04-25T03:40:51;19.63;;;7.63;;
29938;SDS011;16799;50.844;5.304;2023-04-25T03:43:17;21.30;;;7.97;;
29938;SDS011;16799;50.844;5.304;2023-04-25T03:45:42;33.33;;;8.63;;
29938;SDS011;16799;50.844;5.304;2023-04-25T03:48:08;13.77;;;6.20;;
29938;SDS011;16799;50.844;5.304;2023-04-25T03:50:34;18.33;;;7.60;;
29938;SDS011;16799;50.844;5.304;2023-04-25T03:53:00;20.20;;;7.17;;
29938;SDS011;16799;50.844;5.304;2023-04-25T03:55:25;17.50;;;9.40;;
29938;SDS011;16799;50.844;5.304;2023-04-25T03:57:51;18.17;;;9.20;;
29938;SDS011;16799;50.844;5.304;2023-04-25T04:00:16;19.13;;;7.30;;
29938;SDS011;16799;50.844;5.304;2023-04-25T04:02:42;18.40;;;8.43;;
29938;SDS011;16799;50.844;5.304;2023-04-25T04:05:08;20.83;;;10.00;;
29938;SDS011;16799;50.844;5.304;2023-04-25T04:07:34;37.67;;;9.13;;
29938;SDS011;16799;50.844;5.304;2023-04-25T04:10:04;40.77;;;9.40;;
29938;SDS011;16799;50.844;5.304;2023-04-25T04:12:31;18.60;;;7.10;;
29938;SDS011;16799;50.844;5.304;2023-04-25T04:14:57;26.23;;;7.83;;
29938;SDS011;16799;50.844;5.304;2023-04-25T04:17:22;19.03;;;9.63;;
29938;SDS011;16799;50.844;5.304;2023-04-25T04:19:48;21.60;;;7.80;;
29938;SDS011;16799;50.844;5.304;2023-04-25T04:22:14;31.97;;;8.40;;
29938;SDS011;16799;50.844;5.304;2023-04-25T04:24:40;21.57;;;9.40;;
29938;SDS011;16799;50.844;5.304;2023-04-25T04:27:08;26.73;;;8.77;;
29938;SDS011;16799;50.844;5.304;2023-04-25T04:29:34;23.00;;;8.63;;
29938;SDS011;16799;50.844;5.304;2023-04-25T04:32:01;35.17;;;10.57;;
29938;SDS011;16799;50.844;5.304;2023-04-25T04:34:28;29.53;;;8.97;;
29938;SDS011;16799;50.844;5.304;2023-04-25T04:36:54;21.43;;;9.77;;
29938;SDS011;16799;50.844;5.304;2023-04-25T04:39:20;19.40;;;7.73;;
29938;SDS011;16799;50.844;5.304;2023-04-25T04:41:46;22.43;;;8.30;;
29938;SDS011;16799;50.844;5.304;2023-04-25T04:44:12;17.13;;;7.63;;
29938;SDS011;16799;50.844;5.304;2023-04-25T04:46:39;19.10;;;7.80;;
29938;SDS011;16799;50.844;5.304;2023-04-25T04:49:05;18.40;;;8.23;;
29938;SDS011;16799;50.844;5.304;2023-04-25T04:51:31;25.10;;;9.00;;
29938;SDS011;16799;50.844;5.304;2023-04-25T04:53:57;8.83;;;5.03;;
29938;SDS011;16799;50.844;5.304;2023-04-25T04:56:27;24.97;;;5.77;;
29938;SDS011;16799;50.844;5.304;2023-04-25T04:58:54;16.27;;;5.30;;
29938;SDS011;16799;50.844;5.304;2023-04-25T05:01:20;11.10;;;6.63;;
29938;SDS011;16799;50.844;5.304;2023-04-25T05:03:45;12.00;;;6.60;;
29938;SDS011;16799;50.844;5.304;2023-04-25T05:06:11;10.50;;;5.37;;
29938;SDS011;16799;50.844;5.304;2023-04-25T05:08:37;13.93;;;6.03;;
29938;SDS011;16799;50.844;5.304;2023-04-25T05:11:02;22.70;;;6.33;;
29938;SDS011;16799;50.844;5.304;2023-04-25T05:13:28;7.80;;;5.07;;
29938;SDS011;16799;50.844;5.304;2023-04-25T05:15:54;11.03;;;5.37;;
29938;SDS011;16799;50.844;5.304;2023-04-25T05:18:19;13.47;;;5.80;;
29938;SDS011;16799;50.844;5.304;2023-04-25T05:20:45;22.10;;;5.27;;
29938;SDS011;16799;50.844;5.304;2023-04-25T05:23:11;8.37;;;7.10;;
29938;SDS011;16799;50.844;5.304;2023-04-25T05:25:36;11.17;;;5.67;;
29938;SDS011;16799;50.844;5.304;2023-04-25T05:28:02;17.10;;;7.57;;
29938;SDS011;16799;50.844;5.304;2023-04-25T05:30:28;16.50;;;6.70;;
29938;SDS011;16799;50.844;5.304;2023-04-25T05:32:53;14.67;;;6.57;;
29938;SDS011;16799;50.844;5.304;2023-04-25T05:35:19;10.83;;;5.67;;
29938;SDS011;16799;50.844;5.304;2023-04-25T05:37:45;8.43;;;5.37;;
29938;SDS011;16799;50.844;5.304;2023-04-25T05:40:10;16.73;;;6.37;;
29938;SDS011;16799;50.844;5.304;2023-04-25T05:42:36;13.93;;;5.90;;
29938;SDS011;16799;50.844;5.304;2023-04-25T05:45:02;5.83;;;5.20;;
29938;SDS011;16799;50.844;5.304;2023-04-25T05:47:28;12.57;;;5.53;;
29938;SDS011;16799;50.844;5.304;2023-04-25T05:49:53;12.90;;;5.90;;
29938;SDS011;16799;50.844;5.304;2023-04-25T05:52:19;14.93;;;6.63;;
29938;SDS011;16799;50.844;5.304;2023-04-25T05:54:44;19.13;;;6.20;;
29938;SDS011;16799;50.844;5.304;2023-04-25T05:57:23;8.27;;;5.90;;
29938;SDS011;16799;50.844;5.304;2023-04-25T05:59:51;6.20;;;5.60;;
29938;SDS011;16799;50.844;5.304;2023-04-25T06:02:17;17.93;;;6.63;;
29938;SDS011;16799;50.844;5.304;2023-04-25T06:04:46;16.90;;;6.27;;
29938;SDS011;16799;50.844;5.304;2023-04-25T06:07:14;9.53;;;5.83;;
29938;SDS011;16799;50.844;5.304;2023-04-25T06:09:39;15.23;;;6.23;;
29938;SDS011;16799;50.844;5.304;2023-04-25T06:12:05;19.27;;;8.30;;
29938;SDS011;16799;50.844;5.304;2023-04-25T06:14:32;8.90;;;5.60;;
29938;SDS011;16799;50.844;5.304;2023-04-25T06:16:58;9.47;;;5.60;;
29938;SDS011;16799;50.844;5.304;2023-04-25T06:19:24;12.80;;;5.70;;
29938;SDS011;16799;50.844;5.304;2023-04-25T06:21:50;11.00;;;6.40;;
29938;SDS011;16799;50.844;5.304;2023-04-25T06:24:15;18.83;;;5.60;;
29938;SDS011;16799;50.844;5.304;2023-04-25T06:26:41;14.33;;;5.33;;
29938;SDS011;16799;50.844;5.304;2023-04-25T06:29:07;16.60;;;6.83;;
29938;SDS011;16799;50.844;5.304;2023-04-25T06:31:33;17.40;;;6.57;;
29938;SDS011;16799;50.844;5.304;2023-04-25T06:33:58;13.53;;;6.13;;
29938;SDS011;16799;50.844;5.304;2023-04-25T06:36:24;13.33;;;5.17;;
29938;SDS011;16799;50.844;5.304;2023-04-25T06:38:51;8.73;;;4.70;;
29938;SDS011;16799;50.844;5.304;2023-04-25T06:41:20;16.63;;;6.13;;
29938;SDS011;16799;50.844;5.304;2023-04-25T06:43:45;12.93;;;5.50;;
29938;SDS011;16799;50.844;5.304;2023-04-25T06:46:11;10.33;;;5.63;;
29938;SDS011;16799;50.844;5.304;2023-04-25T06:48:37;7.40;;;4.40;;
29938;SDS011;16799;50.844;5.304;2023-04-25T06:51:03;17.63;;;5.07;;
29938;SDS011;16799;50.844;5.304;2023-04-25T06:53:29;5.43;;;4.70;;
29938;SDS011;16799;50.844;5.304;2023-04-25T06:55:55;7.33;;;5.80;;
29938;SDS011;16799;50.844;5.304;2023-04-25T06:58:20;7.10;;;4.23;;
29938;SDS011;16799;50.844;5.304;2023-04-25T07:00:46;10.40;;;5.30;;
29938;SDS011;16799;50.844;5.304;2023-04-25T07:03:12;13.80;;;5.10;;
29938;SDS011;16799;50.844;5.304;2023-04-25T07:05:37;13.53;;;5.10;;
29938;SDS011;16799;50.844;5.304;2023-04-25T07:08:03;10.73;;;6.17;;
29938;SDS011;16799;50.844;5.304;2023-04-25T07:10:29;24.77;;;5.97;;
29938;SDS011;16799;50.844;5.304;2023-04-25T07:12:54;15.50;;;6.10;;
29938;SDS011;16799;50.844;5.304;2023-04-25T07:15:20;21.93;;;8.83;;
29938;SDS011;16799;50.844;5.304;2023-04-25T07:17:46;10.97;;;5.83;;
29938;SDS011;16799;50.844;5.304;2023-04-25T07:20:11;9.83;;;6.90;;
29938;SDS011;16799;50.844;5.304;2023-04-25T07:22:37;23.60;;;5.63;;
29938;SDS011;16799;50.844;5.304;2023-04-25T07:25:03;18.43;;;8.40;;
29938;SDS011;16799;50.844;5.304;2023-04-25T07:27:29;9.57;;;5.57;;
29938;SDS011;16799;50.844;5.304;2023-04-25T07:29:55;18.20;;;6.87;;
29938;SDS011;16799;50.844;5.304;2023-04-25T07:32:21;10.90;;;6.80;;
29938;SDS011;16799;50.844;5.304;2023-04-25T07:34:47;21.97;;;7.80;;
29938;SDS011;16799;50.844;5.304;2023-04-25T07:37:13;21.00;;;7.50;;
29938;SDS011;16799;50.844;5.304;2023-04-25T07:39:39;15.10;;;7.53;;
29938;SDS011;16799;50.844;5.304;2023-04-25T07:42:05;24.80;;;8.70;;
29938;SDS011;16799;50.844;5.304;2023-04-25T07:44:33;23.30;;;8.50;;
29938;SDS011;16799;50.844;5.304;2023-04-25T07:47:03;19.83;;;7.07;;
29938;SDS011;16799;50.844;5.304;2023-04-25T07:49:31;31.13;;;9.73;;
29938;SDS011;16799;50.844;5.304;2023-04-25T07:52:01;20.40;;;8.60;;
29938;SDS011;16799;50.844;5.304;2023-04-25T07:54:27;22.97;;;9.87;;
29938;SDS011;16799;50.844;5.304;2023-04-25T07:56:53;29.40;;;8.33;;
29938;SDS011;16799;50.844;5.304;2023-04-25T07:59:19;25.83;;;8.83;;
29938;SDS011;16799;50.844;5.304;2023-04-25T08:01:45;27.47;;;11.47;;
29938;SDS011;16799;50.844;5.304;2023-04-25T08:04:10;31.10;;;12.97;;
29938;SDS011;16799;50.844;5.304;2023-04-25T08:06:36;36.67;;;15.43;;
29938;SDS011;16799;50.844;5.304;2023-04-25T08:09:02;39.80;;;14.00;;
29938;SDS011;16799;50.844;5.304;2023-04-25T08:11:28;37.47;;;10.80;;
29938;SDS011;16799;50.844;5.304;2023-04-25T08:13:54;24.13;;;10.43;;
29938;SDS011;16799;50.844;5.304;2023-04-25T08:16:19;29.40;;;11.30;;
29938;SDS011;16799;50.844;5.304;2023-04-25T08:18:45;20.80;;;9.00;;
29938;SDS011;16799;50.844;5.304;2023-04-25T08:21:11;22.47;;;9.50;;
29938;SDS011;16799;50.844;5.304;2023-04-25T08:23:37;20.87;;;7.80;;
29938;SDS011;16799;50.844;5.304;2023-04-25T08:26:03;20.87;;;8.17;;
29938;SDS011;16799;50.844;5.304;2023-04-25T08:28:29;14.90;;;7.57;;
29938;SDS011;16799;50.844;5.304;2023-04-25T08:30:56;28.03;;;5.97;;
29938;SDS011;16799;50.844;5.304;2023-04-25T08:33:21;15.63;;;4.40;;
29938;SDS011;16799;50.844;5.304;2023-04-25T08:35:47;19.53;;;4.97;;
29938;SDS011;16799;50.844;5.304;2023-04-25T08:38:13;13.73;;;6.47;;
29938;SDS011;16799;50.844;5.304;2023-04-25T08:40:39;13.27;;;4.33;;
29938;SDS011;16799;50.844;5.304;2023-04-25T08:43:06;14.00;;;4.47;;
29938;SDS011;16799;50.844;5.304;2023-04-25T08:45:38;21.67;;;4.43;;
29938;SDS011;16799;50.844;5.304;2023-04-25T08:48:07;21.63;;;7.13;;
29938;SDS011;16799;50.844;5.304;2023-04-25T08:50:37;15.07;;;3.13;;
29938;SDS011;16799;50.844;5.304;2023-04-25T08:53:10;20.00;;;5.07;;
29938;SDS011;16799;50.844;5.304;2023-04-25T08:55:43;4.80;;;3.70;;
29938;SDS011;16799;50.844;5.304;2023-04-25T08:58:11;6.83;;;2.80;;
29938;SDS011;16799;50.844;5.304;2023-04-25T09:00:37;23.10;;;3.77;;
29938;SDS011;16799;50.844;5.304;2023-04-25T09:03:03;9.83;;;3.40;;
29938;SDS011;16799;50.844;5.304;2023-04-25T09:05:30;4.07;;;2.70;;
29938;SDS011;16799;50.844;5.304;2023-04-25T09:08:00;15.57;;;3.87;;
29938;SDS011;16799;50.844;5.304;2023-04-25T09:10:27;18.93;;;3.80;;
29938;SDS011;16799;50.844;5.304;2023-04-25T09:20:58;8.17;;;4.20;;
29938;SDS011;16799;50.844;5.304;2023-04-25T09:23:45;4.90;;;3.77;;
29938;SDS011;16799;50.844;5.304;2023-04-25T09:26:20;7.07;;;3.90;;
29938;SDS011;16799;50.844;5.304;2023-04-25T09:28:46;2.57;;;2.27;;
29938;SDS011;16799;50.844;5.304;2023-04-25T09:31:21;5.60;;;3.00;;
29938;SDS011;16799;50.844;5.304;2023-04-25T09:33:49;4.00;;;2.57;;
29938;SDS011;16799;50.844;5.304;2023-04-25T09:36:14;5.30;;;3.57;;
29938;SDS011;16799;50.844;5.304;2023-04-25T09:38:45;3.00;;;2.60;;
29938;SDS011;16799;50.844;5.304;2023-04-25T09:41:11;7.40;;;2.50;;
29938;SDS011;16799;50.844;5.304;2023-04-25T09:43:38;9.63;;;3.20;;
29938;SDS011;16799;50.844;5.304;2023-04-25T09:46:10;3.90;;;2.23;;
29938;SDS011;16799;50.844;5.304;2023-04-25T09:48:36;3.53;;;2.40;;
29938;SDS011;16799;50.844;5.304;2023-04-25T09:53:28;5.57;;;3.03;;
29938;SDS011;16799;50.844;5.304;2023-04-25T09:55:54;8.03;;;2.90;;
29938;SDS011;16799;50.844;5.304;2023-04-25T09:58:21;4.70;;;2.70;;
29938;SDS011;16799;50.844;5.304;2023-04-25T10:00:49;11.40;;;2.93;;
29938;SDS011;16799;50.844;5.304;2023-04-25T10:03:17;8.03;;;2.17;;
29938;SDS011;16799;50.844;5.304;2023-04-25T10:05:44;15.60;;;3.00;;
29938;SDS011;16799;50.844;5.304;2023-04-25T10:08:14;5.50;;;2.53;;
29938;SDS011;16799;50.844;5.304;2023-04-25T10:10:41;7.87;;;2.87;;
29938;SDS011;16799;50.844;5.304;2023-04-25T10:13:08;7.60;;;3.00;;
29938;SDS011;16799;50.844;5.304;2023-04-25T10:15:34;8.63;;;3.13;;
29938;SDS011;16799;50.844;5.304;2023-04-25T10:18:03;5.07;;;3.20;;
29938;SDS011;16799;50.844;5.304;2023-04-25T10:20:29;9.20;;;2.23;;
29938;SDS011;16799;50.844;5.304;2023-04-25T10:22:57;8.80;;;4.50;;
29938;SDS011;16799;50.844;5.304;2023-04-25T10:25:28;9.13;;;3.20;;
29938;SDS011;16799;50.844;5.304;2023-04-25T10:27:55;12.27;;;2.30;;
29938;SDS011;16799;50.844;5.304;2023-04-25T10:30:20;7.97;;;3.33;;
29938;SDS011;16799;50.844;5.304;2023-04-25T10:32:46;8.30;;;3.23;;
29938;SDS011;16799;50.844;5.304;2023-04-25T10:35:25;8.40;;;2.20;;
29938;SDS011;16799;50.844;5.304;2023-04-25T10:37:59;9.20;;;3.37;;
29938;SDS011;16799;50.844;5.304;2023-04-25T10:40:25;6.70;;;3.00;;
29938;SDS011;16799;50.844;5.304;2023-04-25T10:42:54;6.27;;;2.47;;
29938;SDS011;16799;50.844;5.304;2023-04-25T10:45:21;13.63;;;2.70;;
29938;SDS011;16799;50.844;5.304;2023-04-25T10:47:47;6.63;;;2.40;;
29938;SDS011;16799;50.844;5.304;2023-04-25T10:50:16;5.00;;;2.50;;
29938;SDS011;16799;50.844;5.304;2023-04-25T10:52:42;6.63;;;2.53;;
29938;SDS011;16799;50.844;5.304;2023-04-25T10:55:09;4.93;;;3.13;;
29938;SDS011;16799;50.844;5.304;2023-04-25T10:57:41;8.07;;;2.03;;
29938;SDS011;16799;50.844;5.304;2023-04-25T11:00:18;6.10;;;2.27;;
29938;SDS011;16799;50.844;5.304;2023-04-25T11:02:53;4.40;;;2.30;;
29938;SDS011;16799;50.844;5.304;2023-04-25T11:05:31;4.03;;;1.80;;
29938;SDS011;16799;50.844;5.304;2023-04-25T11:08:01;6.90;;;2.47;;
29938;SDS011;16799;50.844;5.304;2023-04-25T11:10:31;5.30;;;2.50;;
29938;SDS011;16799;50.844;5.304;2023-04-25T11:13:00;6.70;;;2.70;;
29938;SDS011;16799;50.844;5.304;2023-04-25T11:15:26;7.90;;;3.27;;
29938;SDS011;16799;50.844;5.304;2023-04-25T11:17:52;9.60;;;3.57;;
29938;SDS011;16799;50.844;5.304;2023-04-25T11:20:19;9.60;;;2.57;;
29938;SDS011;16799;50.844;5.304;2023-04-25T11:22:45;7.03;;;3.50;;
29938;SDS011;16799;50.844;5.304;2023-04-25T11:25:13;10.73;;;3.50;;
29938;SDS011;16799;50.844;5.304;2023-04-25T11:27:52;7.43;;;2.40;;
29938;SDS011;16799;50.844;5.304;2023-04-25T11:30:21;5.43;;;2.57;;
29938;SDS011;16799;50.844;5.304;2023-04-25T11:32:47;8.33;;;2.30;;
29938;SDS011;16799;50.844;5.304;2023-04-25T11:35:13;2.50;;;2.10;;
29938;SDS011;16799;50.844;5.304;2023-04-25T11:37:40;9.33;;;3.13;;
29938;SDS011;16799;50.844;5.304;2023-04-25T11:40:07;5.10;;;2.00;;
29938;SDS011;16799;50.844;5.304;2023-04-25T11:42:39;5.20;;;2.47;;
29938;SDS011;16799;50.844;5.304;2023-04-25T11:45:09;2.50;;;1.23;;
29938;SDS011;16799;50.844;5.304;2023-04-25T11:47:36;5.13;;;2.17;;
29938;SDS011;16799;50.844;5.304;2023-04-25T11:50:05;9.07;;;1.23;;
29938;SDS011;16799;50.844;5.304;2023-04-25T11:52:42;2.10;;;1.10;;
29938;SDS011;16799;50.844;5.304;2023-04-25T11:55:12;3.00;;;2.13;;
29938;SDS011;16799;50.844;5.304;2023-04-25T11:57:39;2.93;;;1.60;;
29938;SDS011;16799;50.844;5.304;2023-04-25T12:00:14;2.80;;;1.30;;
29938;SDS011;16799;50.844;5.304;2023-04-25T12:02:46;3.10;;;1.60;;
29938;SDS011;16799;50.844;5.304;2023-04-25T12:05:13;2.73;;;1.20;;
29938;SDS011;16799;50.844;5.304;2023-04-25T12:07:42;6.40;;;1.93;;
29938;SDS011;16799;50.844;5.304;2023-04-25T12:12:36;3.77;;;1.10;;
29938;SDS011;16799;50.844;5.304;2023-04-25T12:15:13;1.70;;;1.30;;
29938;SDS011;16799;50.844;5.304;2023-04-25T12:17:50;1.73;;;1.03;;
29938;SDS011;16799;50.844;5.304;2023-04-25T12:20:19;3.10;;;1.70;;
29938;SDS011;16799;50.844;5.304;2023-04-25T12:22:56;5.37;;;1.83;;
29938;SDS011;16799;50.844;5.304;2023-04-25T12:25:41;2.13;;;1.50;;
29938;SDS011;16799;50.844;5.304;2023-04-25T12:33:23;4.87;;;1.67;;
29938;SDS011;16799;50.844;5.304;2023-04-25T12:35:49;5.40;;;2.10;;
29938;SDS011;16799;50.844;5.304;2023-04-25T12:38:22;5.07;;;3.47;;
29938;SDS011;16799;50.844;5.304;2023-04-25T12:40:51;6.43;;;2.83;;
29938;SDS011;16799;50.844;5.304;2023-04-25T12:43:17;10.73;;;2.77;;
29938;SDS011;16799;50.844;5.304;2023-04-25T12:45:43;23.83;;;11.10;;
29938;SDS011;16799;50.844;5.304;2023-04-25T12:48:09;4.93;;;3.37;;
29938;SDS011;16799;50.844;5.304;2023-04-25T12:50:35;4.63;;;3.10;;
29938;SDS011;16799;50.844;5.304;2023-04-25T12:53:02;4.23;;;2.70;;
29938;SDS011;16799;50.844;5.304;2023-04-25T12:55:28;3.80;;;2.50;;
29938;SDS011;16799;50.844;5.304;2023-04-25T12:57:54;3.37;;;2.47;;
29938;SDS011;16799;50.844;5.304;2023-04-25T13:00:20;5.37;;;3.00;;
29938;SDS011;16799;50.844;5.304;2023-04-25T13:02:46;14.57;;;2.80;;
29938;SDS011;16799;50.844;5.304;2023-04-25T13:05:12;5.20;;;2.80;;
29938;SDS011;16799;50.844;5.304;2023-04-25T13:07:38;2.73;;;2.07;;
29938;SDS011;16799;50.844;5.304;2023-04-25T13:10:04;7.97;;;2.50;;
29938;SDS011;16799;50.844;5.304;2023-04-25T13:12:30;2.00;;;1.70;;
29938;SDS011;16799;50.844;5.304;2023-04-25T13:14:56;1.67;;;1.10;;
29938;SDS011;16799;50.844;5.304;2023-04-25T13:17:22;5.40;;;1.77;;
29938;SDS011;16799;50.844;5.304;2023-04-25T13:19:47;3.87;;;1.50;;
29938;SDS011;16799;50.844;5.304;2023-04-25T13:22:13;2.50;;;1.87;;
29938;SDS011;16799;50.844;5.304;2023-04-25T13:24:41;5.10;;;1.97;;
29938;SDS011;16799;50.844;5.304;2023-04-25T13:27:07;3.70;;;2.50;;
29938;SDS011;16799;50.844;5.304;2023-04-25T13:29:33;2.37;;;2.17;;
29938;SDS011;16799;50.844;5.304;2023-04-25T13:32:00;8.13;;;2.37;;
29938;SDS011;16799;50.844;5.304;2023-04-25T13:34:26;2.90;;;1.50;;
29938;SDS011;16799;50.844;5.304;2023-04-25T13:36:53;4.80;;;3.33;;
29938;SDS011;16799;50.844;5.304;2023-04-25T13:39:19;12.17;;;3.10;;
29938;SDS011;16799;50.844;5.304;2023-04-25T13:41:45;4.17;;;1.90;;
29938;SDS011;16799;50.844;5.304;2023-04-25T13:44:11;3.70;;;1.90;;
29938;SDS011;16799;50.844;5.304;2023-04-25T13:46:36;3.10;;;2.03;;
29938;SDS011;16799;50.844;5.304;2023-04-25T13:49:03;5.50;;;2.20;;
29938;SDS011;16799;50.844;5.304;2023-04-25T13:51:29;5.20;;;3.10;;
29938;SDS011;16799;50.844;5.304;2023-04-25T13:53:55;3.33;;;2.60;;
29938;SDS011;16799;50.844;5.304;2023-04-25T13:56:21;6.77;;;1.90;;
29938;SDS011;16799;50.844;5.304;2023-04-25T13:58:48;2.53;;;2.00;;
29938;SDS011;16799;50.844;5.304;2023-04-25T14:01:15;9.57;;;2.73;;
29938;SDS011;16799;50.844;5.304;2023-04-25T14:03:41;5.93;;;2.80;;
29938;SDS011;16799;50.844;5.304;2023-04-25T14:06:07;7.03;;;2.80;;
29938;SDS011;16799;50.844;5.304;2023-04-25T14:08:33;6.33;;;2.47;;
29938;SDS011;16799;50.844;5.304;2023-04-25T14:10:59;9.53;;;3.00;;
29938;SDS011;16799;50.844;5.304;2023-04-25T14:13:25;3.43;;;2.67;;
29938;SDS011;16799;50.844;5.304;2023-04-25T14:15:51;4.03;;;1.87;;
29938;SDS011;16799;50.844;5.304;2023-04-25T14:18:17;4.67;;;2.40;;
29938;SDS011;16799;50.844;5.304;2023-04-25T14:20:44;3.20;;;1.50;;
29938;SDS011;16799;50.844;5.304;2023-04-25T14:23:10;2.73;;;2.53;;
29938;SDS011;16799;50.844;5.304;2023-04-25T14:25:36;3.53;;;2.10;;
29938;SDS011;16799;50.844;5.304;2023-04-25T14:28:02;7.73;;;2.23;;
29938;SDS011;16799;50.844;5.304;2023-04-25T14:30:27;2.17;;;1.97;;
29938;SDS011;16799;50.844;5.304;2023-04-25T14:32:53;10.13;;;2.27;;
29938;SDS011;16799;50.844;5.304;2023-04-25T14:35:19;6.23;;;1.90;;
29938;SDS011;16799;50.844;5.304;2023-04-25T14:37:45;8.03;;;1.87;;
29938;SDS011;16799;50.844;5.304;2023-04-25T14:40:11;5.20;;;1.40;;
29938;SDS011;16799;50.844;5.304;2023-04-25T14:42:40;1.60;;;1.50;;
29938;SDS011;16799;50.844;5.304;2023-04-25T14:45:06;1.23;;;1.13;;
29938;SDS011;16799;50.844;5.304;2023-04-25T14:47:33;2.60;;;1.60;;
29938;SDS011;16799;50.844;5.304;2023-04-25T14:50:00;5.10;;;2.30;;
29938;SDS011;16799;50.844;5.304;2023-04-25T14:52:26;5.20;;;1.97;;
29938;SDS011;16799;50.844;5.304;2023-04-25T14:54:52;4.00;;;2.00;;
29938;SDS011;16799;50.844;5.304;2023-04-25T14:57:18;4.33;;;1.83;;